Time;durP1;ratioP1;P1;durP2;ratioP2;P2;SDS_P1;SDS_P2;PMS_P1;PMS_P2;Temp;Humidity;BMP_temperature;BMP_pressure;BME280_temperature;BME280_humidity;BME280_pressure;Samples;Min_cycle;Max_cycle;Signal;HPM_P1;HPM_P2
2022/03/30 00:01:51;;;;;;;36.97;10.95;;;;;;;;;;4930403;28;20035;-82
2022/03/30 00:04:17;;;;;;;27.15;10.63;;;;;;;;;;4933756;28;20035;-81
2022/03/30 00:06:44;;;;;;;37.75;10.85;;;;;;;;;;4965133;28;20396;-82
2022/03/30 00:09:10;;;;;;;27.95;11.18;;;;;;;;;;4965935;28;20031;-82
2022/03/30 00:11:36;;;;;;;27.65;11.18;;;;;;;;;;4962778;28;20636;-82
2022/03/30 00:14:02;;;;;;;30.23;10.77;;;;;;;;;;4964279;28;20039;-83
2022/03/30 00:16:28;;;;;;;29.63;9.70;;;;;;;;;;4965343;28;20041;-83
2022/03/30 00:18:54;;;;;;;29.20;9.68;;;;;;;;;;4958523;28;20398;-82
2022/03/30 00:21:20;;;;;;;36.95;9.20;;;;;;;;;;4963773;28;20059;-83
2022/03/30 00:23:46;;;;;;;35.42;9.13;;;;;;;;;;4968466;28;20024;-82
2022/03/30 00:26:12;;;;;;;31.83;10.20;;;;;;;;;;4964211;28;20031;-82
2022/03/30 00:28:38;;;;;;;26.95;8.77;;;;;;;;;;4965351;28;20128;-82
2022/03/30 00:31:04;;;;;;;27.20;9.18;;;;;;;;;;4961723;28;20514;-82
2022/03/30 00:33:30;;;;;;;25.13;8.70;;;;;;;;;;4955302;28;21101;-83
2022/03/30 00:35:56;;;;;;;29.10;8.77;;;;;;;;;;4954227;28;20117;-82
2022/03/30 00:38:22;;;;;;;20.85;9.40;;;;;;;;;;4961776;28;20035;-82
2022/03/30 00:40:49;;;;;;;29.65;9.95;;;;;;;;;;4953979;28;20169;-83
2022/03/30 00:43:15;;;;;;;21.17;8.52;;;;;;;;;;4953482;28;20925;-82
2022/03/30 00:45:41;;;;;;;32.75;9.95;;;;;;;;;;4964097;28;20073;-82
2022/03/30 00:48:08;;;;;;;27.10;9.63;;;;;;;;;;4966043;28;20041;-82
2022/03/30 00:50:34;;;;;;;28.92;9.30;;;;;;;;;;4966678;28;20026;-81
2022/03/30 00:53:00;;;;;;;38.58;10.85;;;;;;;;;;4963476;28;20071;-82
2022/03/30 00:55:27;;;;;;;28.33;10.02;;;;;;;;;;4961659;28;20722;-82
2022/03/30 00:57:53;;;;;;;30.25;11.85;;;;;;;;;;4967201;28;20610;-82
2022/03/30 01:00:20;;;;;;;37.35;10.60;;;;;;;;;;4949802;28;20041;-82
2022/03/30 01:02:47;;;;;;;36.47;10.90;;;;;;;;;;4953334;28;20601;-83
2022/03/30 01:05:13;;;;;;;31.08;10.85;;;;;;;;;;4962328;28;20031;-83
2022/03/30 01:07:40;;;;;;;38.30;12.68;;;;;;;;;;4961844;28;20091;-81
2022/03/30 01:10:07;;;;;;;35.35;10.63;;;;;;;;;;4963749;28;20037;-82
2022/03/30 01:12:35;;;;;;;34.15;11.05;;;;;;;;;;4968355;28;20031;-81
2022/03/30 01:15:01;;;;;;;31.65;10.90;;;;;;;;;;4950844;28;20089;-82
2022/03/30 01:17:27;;;;;;;35.72;12.30;;;;;;;;;;4968548;28;20537;-82
2022/03/30 01:19:53;;;;;;;37.80;10.65;;;;;;;;;;4963831;28;20037;-81
2022/03/30 01:22:19;;;;;;;22.38;9.35;;;;;;;;;;4950679;28;20596;-82
2022/03/30 01:24:45;;;;;;;31.35;11.30;;;;;;;;;;4963147;28;20027;-82
2022/03/30 01:27:11;;;;;;;23.70;10.02;;;;;;;;;;4962833;28;20121;-82
2022/03/30 01:32:25;;;;;;;33.30;9.88;;;;;;;;;;4960636;28;20076;-82
2022/03/30 01:34:51;;;;;;;35.50;10.20;;;;;;;;;;4949915;28;20177;-82
2022/03/30 01:37:17;;;;;;;24.80;10.25;;;;;;;;;;4966815;28;20031;-82
2022/03/30 01:39:44;;;;;;;33.15;10.80;;;;;;;;;;4947953;28;20471;-82
2022/03/30 01:42:10;;;;;;;23.60;9.43;;;;;;;;;;4959316;28;20062;-81
2022/03/30 01:44:37;;;;;;;24.00;10.07;;;;;;;;;;4960941;28;20034;-82
2022/03/30 01:47:03;;;;;;;31.73;10.93;;;;;;;;;;4949608;28;20074;-81
2022/03/30 01:49:30;;;;;;;32.55;10.15;;;;;;;;;;4950732;28;20035;-82
2022/03/30 01:51:56;;;;;;;22.83;8.98;;;;;;;;;;4952061;28;20441;-83
2022/03/30 01:54:23;;;;;;;32.05;9.93;;;;;;;;;;4948214;28;20030;-82
2022/03/30 01:56:50;;;;;;;28.63;10.23;;;;;;;;;;4916879;28;20051;-82
2022/03/30 01:59:17;;;;;;;34.47;11.18;;;;;;;;;;4918285;29;20064;-82
2022/03/30 02:01:43;;;;;;;39.72;11.10;;;;;;;;;;4904046;29;20510;-81
2022/03/30 02:04:09;;;;;;;45.13;11.23;;;;;;;;;;4910463;29;20539;-81
2022/03/30 02:06:39;;;;;;;29.33;11.02;;;;;;;;;;4907893;29;20023;-82
2022/03/30 02:09:06;;;;;;;26.05;11.35;;;;;;;;;;4910586;29;20117;-82
2022/03/30 02:11:32;;;;;;;43.17;12.40;;;;;;;;;;4902731;29;20056;-82
2022/03/30 02:14:00;;;;;;;39.47;11.80;;;;;;;;;;4910854;29;20103;-81
2022/03/30 02:16:26;;;;;;;42.42;13.82;;;;;;;;;;4927573;29;20032;-82
2022/03/30 02:18:52;;;;;;;39.97;11.57;;;;;;;;;;4914213;29;20039;-81
2022/03/30 02:21:18;;;;;;;20.55;8.70;;;;;;;;;;4918726;29;20035;-82
2022/03/30 02:23:45;;;;;;;27.25;10.50;;;;;;;;;;4910536;29;20020;-82
2022/03/30 02:26:12;;;;;;;29.55;10.93;;;;;;;;;;4912516;29;20031;-81
2022/03/30 02:28:38;;;;;;;34.75;11.60;;;;;;;;;;4930052;29;20028;-81
2022/03/30 02:31:04;;;;;;;20.98;9.52;;;;;;;;;;4911704;29;20043;-81
2022/03/30 02:33:30;;;;;;;22.75;9.32;;;;;;;;;;4908311;29;20030;-81
2022/03/30 02:35:56;;;;;;;28.65;9.40;;;;;;;;;;4911806;29;20035;-81
2022/03/30 02:38:22;;;;;;;22.17;9.02;;;;;;;;;;4913492;29;20191;-81
2022/03/30 02:40:48;;;;;;;19.60;8.60;;;;;;;;;;4911769;29;20444;-81
2022/03/30 02:43:17;;;;;;;17.00;6.60;;;;;;;;;;4927040;29;20040;-81
2022/03/30 02:45:43;;;;;;;18.83;6.03;;;;;;;;;;4913564;29;20043;-81
2022/03/30 02:48:19;;;;;;;16.30;5.22;;;;;;;;;;4907518;29;20036;-81
2022/03/30 02:50:46;;;;;;;13.77;3.42;;;;;;;;;;4927339;29;20031;-80
2022/03/30 02:53:12;;;;;;;9.95;2.50;;;;;;;;;;4926404;29;20028;-81
2022/03/30 02:55:38;;;;;;;5.72;2.00;;;;;;;;;;4936932;28;20051;-82
2022/03/30 02:58:04;;;;;;;5.03;1.70;;;;;;;;;;4936356;28;20031;-81
2022/03/30 03:00:31;;;;;;;5.65;1.35;;;;;;;;;;4950618;28;20102;-81
2022/03/30 03:02:57;;;;;;;5.35;1.70;;;;;;;;;;4949866;28;20066;-81
2022/03/30 03:05:26;;;;;;;2.88;1.20;;;;;;;;;;4935047;28;20023;-81
2022/03/30 03:07:52;;;;;;;3.15;1.40;;;;;;;;;;4928597;29;20027;-81
2022/03/30 03:10:18;;;;;;;3.20;1.20;;;;;;;;;;4945800;28;20035;-81
2022/03/30 03:12:44;;;;;;;1.77;0.90;;;;;;;;;;4950363;28;20506;-81
2022/03/30 03:15:10;;;;;;;2.42;1.00;;;;;;;;;;4935035;29;20101;-81
2022/03/30 03:17:36;;;;;;;2.63;0.90;;;;;;;;;;4929758;28;20057;-81
2022/03/30 03:20:03;;;;;;;1.63;1.00;;;;;;;;;;4947690;28;20028;-82
2022/03/30 03:22:29;;;;;;;1.23;1.13;;;;;;;;;;4943318;28;20570;-81
2022/03/30 03:24:55;;;;;;;2.65;0.55;;;;;;;;;;4923744;28;20047;-81
2022/03/30 03:27:21;;;;;;;2.05;0.70;;;;;;;;;;4933131;28;20098;-81
2022/03/30 03:29:47;;;;;;;0.93;0.68;;;;;;;;;;4927152;28;20019;-81
2022/03/30 03:32:13;;;;;;;5.28;0.90;;;;;;;;;;4929758;29;20050;-80
2022/03/30 03:34:39;;;;;;;0.30;0.30;;;;;;;;;;4941192;28;20631;-81
2022/03/30 03:37:05;;;;;;;0.70;0.47;;;;;;;;;;4929518;28;20046;-81
2022/03/30 03:40:05;;;;;;;0.70;0.50;;;;;;;;;;4749113;27;8182491;-80
2022/03/30 03:42:32;;;;;;;1.02;0.50;;;;;;;;;;4996192;28;20444;-81
2022/03/30 03:44:58;;;;;;;0.40;0.40;;;;;;;;;;5001297;28;20091;-80
2022/03/30 03:47:24;;;;;;;4.28;0.55;;;;;;;;;;4996401;28;20486;-80
2022/03/30 03:49:50;;;;;;;5.05;0.50;;;;;;;;;;4997969;28;20409;-80
2022/03/30 03:52:16;;;;;;;0.73;0.38;;;;;;;;;;5012277;28;20034;-81
2022/03/30 03:54:43;;;;;;;0.73;0.50;;;;;;;;;;5016543;28;20029;-80
2022/03/30 03:57:09;;;;;;;1.90;0.43;;;;;;;;;;4994014;28;20030;-80
2022/03/30 03:59:35;;;;;;;1.45;0.60;;;;;;;;;;4995468;28;20058;-80
2022/03/30 04:02:04;;;;;;;0.95;0.50;;;;;;;;;;5013858;28;20833;-80
2022/03/30 04:04:30;;;;;;;1.55;0.50;;;;;;;;;;4998646;28;20033;-81
2022/03/30 04:06:56;;;;;;;0.80;0.30;;;;;;;;;;5009782;28;20105;-80
2022/03/30 04:09:22;;;;;;;0.82;0.32;;;;;;;;;;5011057;28;20034;-80
2022/03/30 04:11:48;;;;;;;2.17;0.50;;;;;;;;;;4997774;28;20705;-81
2022/03/30 04:14:16;;;;;;;1.95;0.40;;;;;;;;;;4994075;28;20034;-81
2022/03/30 04:16:42;;;;;;;0.68;0.52;;;;;;;;;;5012384;28;20494;-81
2022/03/30 04:19:08;;;;;;;0.82;0.50;;;;;;;;;;5011500;28;20043;-80
2022/03/30 04:21:34;;;;;;;2.38;0.50;;;;;;;;;;5008290;28;20037;-81
2022/03/30 04:24:00;;;;;;;1.98;0.98;;;;;;;;;;5007562;28;20817;-80
2022/03/30 04:26:26;;;;;;;1.65;0.60;;;;;;;;;;5009308;28;20028;-80
2022/03/30 04:28:52;;;;;;;0.43;0.43;;;;;;;;;;4994322;28;20030;-80
2022/03/30 04:31:18;;;;;;;1.02;0.50;;;;;;;;;;4992891;28;20037;-80
2022/03/30 04:33:44;;;;;;;1.35;0.65;;;;;;;;;;5000873;28;20041;-81
2022/03/30 04:36:11;;;;;;;0.95;0.55;;;;;;;;;;5009260;28;20501;-80
2022/03/30 04:38:38;;;;;;;1.20;1.00;;;;;;;;;;5009179;28;20786;-80
2022/03/30 04:41:04;;;;;;;1.42;0.82;;;;;;;;;;5012531;28;20033;-80
2022/03/30 04:43:30;;;;;;;1.20;0.70;;;;;;;;;;5012853;28;20052;-81
2022/03/30 04:45:56;;;;;;;3.38;0.80;;;;;;;;;;5014216;28;20058;-80
2022/03/30 04:48:23;;;;;;;4.78;1.05;;;;;;;;;;5014229;28;20556;-81
2022/03/30 04:50:50;;;;;;;3.70;0.90;;;;;;;;;;4988037;28;20038;-80
2022/03/30 04:53:16;;;;;;;6.15;1.00;;;;;;;;;;4998326;28;20658;-82
2022/03/30 04:55:42;;;;;;;3.17;1.10;;;;;;;;;;4998387;28;20460;-81
2022/03/30 04:58:08;;;;;;;4.75;0.95;;;;;;;;;;4986985;28;20085;-80
2022/03/30 05:00:34;;;;;;;2.88;0.63;;;;;;;;;;5004609;28;20058;-81
2022/03/30 05:03:00;;;;;;;4.22;0.90;;;;;;;;;;4982626;28;20022;-80
2022/03/30 05:05:27;;;;;;;2.50;1.08;;;;;;;;;;5000685;28;20647;-80
2022/03/30 05:07:53;;;;;;;5.38;1.13;;;;;;;;;;4981799;28;20501;-81
2022/03/30 05:10:19;;;;;;;3.50;1.00;;;;;;;;;;4985932;28;20041;-80
2022/03/30 05:12:45;;;;;;;1.23;0.95;;;;;;;;;;4990763;28;20137;-81
2022/03/30 05:15:11;;;;;;;2.40;1.00;;;;;;;;;;4988291;28;20567;-80
2022/03/30 05:17:38;;;;;;;3.53;1.20;;;;;;;;;;4984811;28;21135;-81
2022/03/30 05:20:06;;;;;;;2.08;1.15;;;;;;;;;;4985384;28;20033;-81
2022/03/30 05:22:33;;;;;;;7.20;1.45;;;;;;;;;;4987158;28;20540;-81
2022/03/30 05:24:59;;;;;;;2.53;1.00;;;;;;;;;;5000805;28;20668;-82
2022/03/30 05:27:26;;;;;;;2.03;1.20;;;;;;;;;;4981025;28;20037;-81
2022/03/30 05:29:55;;;;;;;1.33;1.05;;;;;;;;;;4980791;28;20497;-82
2022/03/30 05:32:21;;;;;;;2.78;1.35;;;;;;;;;;4985999;28;20026;-81
2022/03/30 05:34:47;;;;;;;1.58;1.33;;;;;;;;;;4980222;28;20536;-81
2022/03/30 05:37:13;;;;;;;1.65;1.23;;;;;;;;;;4984091;28;20451;-82
2022/03/30 05:39:41;;;;;;;6.03;1.40;;;;;;;;;;4992763;28;20145;-81
2022/03/30 05:42:07;;;;;;;3.38;1.20;;;;;;;;;;4997373;28;20493;-82
2022/03/30 05:44:33;;;;;;;4.05;1.50;;;;;;;;;;5017212;28;20048;-82
2022/03/30 05:46:59;;;;;;;4.65;1.75;;;;;;;;;;5001179;28;20613;-81
2022/03/30 05:49:25;;;;;;;6.32;1.80;;;;;;;;;;5019801;28;20030;-81
2022/03/30 05:51:51;;;;;;;5.22;1.60;;;;;;;;;;4999841;28;20028;-81
2022/03/30 05:54:17;;;;;;;2.95;1.65;;;;;;;;;;5019914;28;20643;-80
2022/03/30 05:57:02;;;;;;;7.95;1.58;;;;;;;;;;5000348;28;20124;-81
2022/03/30 05:59:29;;;;;;;9.25;2.13;;;;;;;;;;4995120;28;20026;-81
2022/03/30 06:01:55;;;;;;;3.17;1.77;;;;;;;;;;5001099;28;20025;-81
2022/03/30 06:04:21;;;;;;;4.38;1.70;;;;;;;;;;5014881;28;20101;-81
2022/03/30 06:06:47;;;;;;;8.68;1.88;;;;;;;;;;5010634;28;20029;-80
2022/03/30 06:09:13;;;;;;;8.15;2.10;;;;;;;;;;5015647;28;20377;-81
2022/03/30 06:11:39;;;;;;;5.95;1.70;;;;;;;;;;4998806;28;20557;-83
2022/03/30 06:14:05;;;;;;;6.57;2.00;;;;;;;;;;4997310;28;20095;-81
2022/03/30 06:16:31;;;;;;;6.93;1.83;;;;;;;;;;4989562;28;20030;-80
2022/03/30 06:18:57;;;;;;;5.70;2.00;;;;;;;;;;5017403;28;20497;-80
2022/03/30 06:21:24;;;;;;;3.00;1.58;;;;;;;;;;4995210;28;20038;-80
2022/03/30 06:23:50;;;;;;;6.85;2.17;;;;;;;;;;5012185;28;20040;-81
2022/03/30 06:26:17;;;;;;;10.15;2.00;;;;;;;;;;5011953;28;20393;-80
2022/03/30 06:28:43;;;;;;;4.65;1.98;;;;;;;;;;4993838;28;20489;-80
2022/03/30 06:31:12;;;;;;;5.97;2.40;;;;;;;;;;4996570;28;20445;-80
2022/03/30 06:33:39;;;;;;;5.88;2.15;;;;;;;;;;5012983;28;20057;-80
2022/03/30 06:36:05;;;;;;;7.93;1.70;;;;;;;;;;4999822;28;20030;-80
2022/03/30 06:38:44;;;;;;;5.78;1.80;;;;;;;;;;4995943;28;20053;-80
2022/03/30 06:41:24;;;;;;;8.98;1.55;;;;;;;;;;5001033;28;20104;-81
2022/03/30 06:43:50;;;;;;;8.35;1.60;;;;;;;;;;5006779;28;20377;-80
2022/03/30 06:46:17;;;;;;;9.73;2.33;;;;;;;;;;5012696;28;20038;-81
2022/03/30 06:48:45;;;;;;;8.82;1.83;;;;;;;;;;4997371;28;20661;-80
2022/03/30 06:51:12;;;;;;;6.90;1.42;;;;;;;;;;4989072;28;20045;-82
2022/03/30 06:53:38;;;;;;;9.30;1.85;;;;;;;;;;5004614;28;20033;-80
2022/03/30 06:56:04;;;;;;;1.67;1.27;;;;;;;;;;4999452;28;20073;-80
2022/03/30 06:58:30;;;;;;;8.57;2.13;;;;;;;;;;4993052;28;20041;-81
2022/03/30 07:00:59;;;;;;;13.93;1.73;;;;;;;;;;5015528;28;20025;-81
2022/03/30 07:03:26;;;;;;;7.07;1.35;;;;;;;;;;4990682;28;20037;-80
2022/03/30 07:05:53;;;;;;;5.38;1.63;;;;;;;;;;4991568;28;20120;-80
2022/03/30 07:11:03;;;;;;;6.60;1.52;;;;;;;;;;5010869;28;20045;-81
2022/03/30 07:13:29;;;;;;;6.10;1.45;;;;;;;;;;5010553;28;20120;-81
2022/03/30 07:15:55;;;;;;;4.30;1.55;;;;;;;;;;4993653;28;20066;-80
2022/03/30 07:18:21;;;;;;;6.57;1.80;;;;;;;;;;4995882;28;20030;-81
2022/03/30 07:20:48;;;;;;;3.58;1.20;;;;;;;;;;5007692;28;20396;-82
2022/03/30 07:23:14;;;;;;;4.68;1.33;;;;;;;;;;4996266;28;20034;-80
2022/03/30 07:25:40;;;;;;;5.95;2.92;;;;;;;;;;5011408;28;20033;-81
2022/03/30 07:28:07;;;;;;;8.25;1.80;;;;;;;;;;4997929;28;20144;-81
2022/03/30 07:30:33;;;;;;;15.60;4.10;;;;;;;;;;4992265;28;20800;-81
2022/03/30 07:33:00;;;;;;;6.07;1.40;;;;;;;;;;5010344;28;20045;-81
2022/03/30 07:35:33;;;;;;;6.70;1.77;;;;;;;;;;5008360;28;20464;-81
2022/03/30 07:38:00;;;;;;;7.55;1.40;;;;;;;;;;4992179;28;20034;-81
2022/03/30 07:40:27;;;;;;;3.92;1.55;;;;;;;;;;5011206;28;20058;-81
2022/03/30 07:42:54;;;;;;;5.18;1.70;;;;;;;;;;5010177;28;20018;-81
2022/03/30 07:45:20;;;;;;;4.22;1.60;;;;;;;;;;5013249;28;20021;-80
2022/03/30 07:47:46;;;;;;;5.13;1.80;;;;;;;;;;4997291;28;20029;-81
2022/03/30 07:50:13;;;;;;;6.75;2.60;;;;;;;;;;4999915;28;20065;-80
2022/03/30 07:52:40;;;;;;;4.90;1.48;;;;;;;;;;4995621;28;20056;-81
2022/03/30 07:55:07;;;;;;;3.72;1.30;;;;;;;;;;4991548;28;20493;-80
2022/03/30 07:57:36;;;;;;;9.90;1.73;;;;;;;;;;4988204;28;20026;-81
2022/03/30 08:00:03;;;;;;;6.47;1.45;;;;;;;;;;4995100;28;20049;-81
2022/03/30 08:02:29;;;;;;;2.08;1.13;;;;;;;;;;4991034;28;20037;-81
2022/03/30 08:04:55;;;;;;;2.60;1.02;;;;;;;;;;5000435;28;20033;-81
2022/03/30 08:07:22;;;;;;;4.65;1.42;;;;;;;;;;4993955;28;20255;-81
2022/03/30 08:09:49;;;;;;;5.45;1.30;;;;;;;;;;5010288;28;20037;-80
2022/03/30 08:12:16;;;;;;;6.05;1.42;;;;;;;;;;4997437;28;20080;-80
2022/03/30 08:14:43;;;;;;;4.78;0.90;;;;;;;;;;4989525;28;20739;-81
2022/03/30 08:17:09;;;;;;;3.55;0.88;;;;;;;;;;4999296;28;20026;-81
2022/03/30 08:19:35;;;;;;;3.70;1.48;;;;;;;;;;4990375;28;20374;-80
2022/03/30 08:24:46;;;;;;;3.97;1.30;;;;;;;;;;5013095;28;20076;-81
2022/03/30 08:27:32;;;;;;;7.18;1.13;;;;;;;;;;5014529;28;20030;-80
2022/03/30 08:29:59;;;;;;;7.68;1.30;;;;;;;;;;5010672;28;20065;-80
2022/03/30 08:32:26;;;;;;;5.15;1.02;;;;;;;;;;4998349;28;20038;-80
2022/03/30 08:34:53;;;;;;;5.03;1.00;;;;;;;;;;5004574;28;20452;-81
2022/03/30 08:37:19;;;;;;;3.63;0.80;;;;;;;;;;5009459;28;20512;-81
2022/03/30 08:39:45;;;;;;;2.25;0.65;;;;;;;;;;5021111;28;20088;-80
2022/03/30 08:42:13;;;;;;;3.78;1.00;;;;;;;;;;5004669;28;20076;-81
2022/03/30 08:44:41;;;;;;;1.17;0.57;;;;;;;;;;5020364;28;20117;-81
2022/03/30 08:47:07;;;;;;;4.68;0.70;;;;;;;;;;5015934;28;20452;-81
2022/03/30 08:49:37;;;;;;;1.92;0.68;;;;;;;;;;4997621;28;20045;-81
2022/03/30 08:52:04;;;;;;;2.20;0.55;;;;;;;;;;5000768;28;20052;-80
2022/03/30 08:54:30;;;;;;;13.88;1.20;;;;;;;;;;4997664;28;20033;-81
2022/03/30 08:56:56;;;;;;;2.70;0.90;;;;;;;;;;4999335;28;20033;-80
2022/03/30 08:59:23;;;;;;;5.03;1.02;;;;;;;;;;5000820;28;20444;-80
2022/03/30 09:01:50;;;;;;;4.07;1.02;;;;;;;;;;4994713;28;20038;-80
2022/03/30 09:04:17;;;;;;;6.65;0.90;;;;;;;;;;4998578;28;20516;-80
2022/03/30 09:06:44;;;;;;;6.85;0.80;;;;;;;;;;4999075;28;20025;-81
2022/03/30 09:09:11;;;;;;;10.20;1.33;;;;;;;;;;5011539;28;20519;-81
2022/03/30 09:11:52;;;;;;;5.13;1.00;;;;;;;;;;4999906;28;20555;-80
2022/03/30 09:14:19;;;;;;;7.88;1.08;;;;;;;;;;4997842;28;20422;-81
2022/03/30 09:16:49;;;;;;;2.70;0.73;;;;;;;;;;4997135;28;20702;-81
2022/03/30 09:19:17;;;;;;;3.83;0.98;;;;;;;;;;4993645;28;20099;-81
2022/03/30 09:21:50;;;;;;;2.50;0.98;;;;;;;;;;4991437;28;20025;-80
2022/03/30 09:24:18;;;;;;;7.30;1.20;;;;;;;;;;5017815;28;20481;-80
2022/03/30 09:26:44;;;;;;;2.95;0.90;;;;;;;;;;5003838;28;20030;-81
2022/03/30 09:29:10;;;;;;;4.63;1.13;;;;;;;;;;4999904;28;20033;-81
2022/03/30 09:31:38;;;;;;;2.33;0.70;;;;;;;;;;4993165;28;20092;-81
2022/03/30 09:34:06;;;;;;;4.93;1.67;;;;;;;;;;5005644;28;20141;-81
2022/03/30 09:36:33;;;;;;;3.15;1.20;;;;;;;;;;5016420;28;20505;-81
2022/03/30 09:38:59;;;;;;;1.88;0.88;;;;;;;;;;5000255;28;20076;-81
2022/03/30 09:41:25;;;;;;;1.25;0.63;;;;;;;;;;5003314;28;20053;-81
2022/03/30 09:44:12;;;;;;;5.65;1.40;;;;;;;;;;4998315;28;20063;-81
2022/03/30 09:46:51;;;;;;;6.88;1.10;;;;;;;;;;5011325;28;20521;-82
2022/03/30 09:49:36;;;;;;;3.80;1.20;;;;;;;;;;5008974;28;20113;-82
2022/03/30 09:52:10;;;;;;;6.60;1.27;;;;;;;;;;5013216;28;20033;-81
2022/03/30 09:54:37;;;;;;;3.88;1.15;;;;;;;;;;4995711;28;20132;-81
2022/03/30 09:57:08;;;;;;;4.45;1.40;;;;;;;;;;5011562;28;20579;-81
2022/03/30 09:59:54;;;;;;;2.75;1.02;;;;;;;;;;4997594;28;20116;-81
2022/03/30 10:02:20;;;;;;;4.90;1.25;;;;;;;;;;5014839;28;20121;-82
2022/03/30 10:04:47;;;;;;;5.15;1.23;;;;;;;;;;5015092;28;20149;-81
2022/03/30 10:07:13;;;;;;;7.68;1.30;;;;;;;;;;4989530;28;20048;-81
2022/03/30 10:09:40;;;;;;;4.50;1.33;;;;;;;;;;5006306;28;20029;-81
2022/03/30 10:12:07;;;;;;;7.03;1.25;;;;;;;;;;4996980;28;20570;-81
2022/03/30 10:14:34;;;;;;;5.10;1.50;;;;;;;;;;4989471;28;20355;-81
2022/03/30 10:17:00;;;;;;;4.07;1.90;;;;;;;;;;4998320;28;20088;-81
2022/03/30 10:19:28;;;;;;;5.10;1.55;;;;;;;;;;4993739;28;20026;-81
2022/03/30 10:22:10;;;;;;;4.45;1.27;;;;;;;;;;4991548;28;20113;-81
2022/03/30 10:24:49;;;;;;;9.07;1.38;;;;;;;;;;5007513;28;20032;-81
2022/03/30 10:27:22;;;;;;;4.25;0.98;;;;;;;;;;4997949;28;20037;-81
2022/03/30 10:29:55;;;;;;;4.63;1.83;;;;;;;;;;4996319;28;20033;-82
2022/03/30 10:32:23;;;;;;;3.65;1.38;;;;;;;;;;5014268;28;20168;-81
2022/03/30 10:35:09;;;;;;;4.85;1.10;;;;;;;;;;4997694;28;20693;-82
2022/03/30 10:37:37;;;;;;;6.15;0.98;;;;;;;;;;4996571;28;20069;-82
2022/03/30 10:40:04;;;;;;;6.10;1.40;;;;;;;;;;5016756;28;20068;-82
2022/03/30 10:42:53;;;;;;;5.00;0.93;;;;;;;;;;4995517;28;20182;-82
2022/03/30 10:45:37;;;;;;;4.85;1.42;;;;;;;;;;5017477;28;20646;-81
2022/03/30 10:48:11;;;;;;;6.32;1.52;;;;;;;;;;5011668;28;20602;-82
2022/03/30 10:50:42;;;;;;;6.43;1.60;;;;;;;;;;5000514;28;20033;-82
2022/03/30 10:53:27;;;;;;;6.70;1.20;;;;;;;;;;4999434;28;20029;-81
2022/03/30 10:55:53;;;;;;;2.58;1.23;;;;;;;;;;5013235;28;20127;-82
2022/03/30 10:58:21;;;;;;;8.70;1.02;;;;;;;;;;5011348;28;20406;-82
2022/03/30 11:00:47;;;;;;;7.95;1.25;;;;;;;;;;4997402;28;20064;-82
2022/03/30 11:03:20;;;;;;;6.70;1.55;;;;;;;;;;4992282;28;20535;-82
2022/03/30 11:06:06;;;;;;;3.28;1.13;;;;;;;;;;5013195;28;20185;-81
2022/03/30 11:08:32;;;;;;;8.13;1.30;;;;;;;;;;4991738;28;20489;-82
2022/03/30 11:11:00;;;;;;;4.45;1.20;;;;;;;;;;4997492;28;20100;-82
2022/03/30 11:13:27;;;;;;;4.90;1.27;;;;;;;;;;5012376;28;20034;-82
2022/03/30 11:15:59;;;;;;;3.28;0.90;;;;;;;;;;4991455;28;20060;-82
2022/03/30 11:18:26;;;;;;;2.70;0.80;;;;;;;;;;5011152;28;20034;-81
2022/03/30 11:21:15;;;;;;;4.47;1.30;;;;;;;;;;4996990;28;20537;-81
2022/03/30 11:23:55;;;;;;;2.75;1.00;;;;;;;;;;5008920;28;20037;-82
2022/03/30 11:26:21;;;;;;;2.42;0.75;;;;;;;;;;5012905;28;20033;-81
2022/03/30 11:28:47;;;;;;;1.42;0.68;;;;;;;;;;4991154;28;20437;-81
2022/03/30 11:31:23;;;;;;;2.28;0.90;;;;;;;;;;5000132;28;20029;-81
2022/03/30 11:34:08;;;;;;;3.33;1.20;;;;;;;;;;4992529;28;20141;-81
2022/03/30 11:36:34;;;;;;;1.55;0.90;;;;;;;;;;4998609;28;20037;-82
2022/03/30 11:39:02;;;;;;;2.25;1.02;;;;;;;;;;4992185;28;20038;-81
2022/03/30 11:41:29;;;;;;;4.90;1.00;;;;;;;;;;5001417;28;20132;-82
2022/03/30 11:46:43;;;;;;;2.85;0.75;;;;;;;;;;4983014;28;20038;-82
2022/03/30 11:49:09;;;;;;;4.38;0.90;;;;;;;;;;5005807;28;20056;-81
2022/03/30 11:51:36;;;;;;;2.53;0.80;;;;;;;;;;4994132;28;20038;-81
2022/03/30 11:54:18;;;;;;;6.20;1.10;;;;;;;;;;4997629;28;20592;-82
2022/03/30 11:56:45;;;;;;;6.80;1.15;;;;;;;;;;4999189;28;20895;-81
2022/03/30 11:59:11;;;;;;;2.50;1.10;;;;;;;;;;5013339;28;20503;-81
2022/03/30 12:01:38;;;;;;;1.73;1.08;;;;;;;;;;4996439;28;20496;-82
2022/03/30 12:04:04;;;;;;;4.30;1.05;;;;;;;;;;5000639;28;20056;-82
2022/03/30 12:06:30;;;;;;;16.08;3.15;;;;;;;;;;5012781;28;20055;-82
2022/03/30 12:08:58;;;;;;;6.35;1.38;;;;;;;;;;5014642;28;20072;-82
2022/03/30 12:11:25;;;;;;;2.40;0.85;;;;;;;;;;4999538;28;20026;-82
2022/03/30 12:13:52;;;;;;;4.82;1.23;;;;;;;;;;5016781;28;20028;-82
2022/03/30 12:16:18;;;;;;;7.78;1.65;;;;;;;;;;5002645;28;20069;-82
2022/03/30 12:18:52;;;;;;;12.50;1.88;;;;;;;;;;5010774;28;20018;-82
2022/03/30 12:21:22;;;;;;;4.47;0.98;;;;;;;;;;5014915;28;20437;-83
2022/03/30 12:23:58;;;;;;;3.05;1.08;;;;;;;;;;5001873;28;21448;-83
2022/03/30 12:26:24;;;;;;;4.28;1.08;;;;;;;;;;5007938;28;20519;-83
2022/03/30 12:28:51;;;;;;;2.60;1.27;;;;;;;;;;5016968;28;20038;-83
2022/03/30 12:31:17;;;;;;;3.20;0.88;;;;;;;;;;5011254;28;20033;-82
2022/03/30 12:33:54;;;;;;;5.88;1.25;;;;;;;;;;4997353;28;20112;-81
2022/03/30 12:36:21;;;;;;;4.72;1.45;;;;;;;;;;4992901;28;20026;-82
2022/03/30 12:38:50;;;;;;;4.22;1.23;;;;;;;;;;4991869;28;20049;-82
2022/03/30 12:41:25;;;;;;;4.47;0.63;;;;;;;;;;5010882;28;20737;-82
2022/03/30 12:43:51;;;;;;;;;;;;;;;;;;5012419;28;20112;-82
2022/03/30 12:46:18;;;;;;;4.05;1.08;;;;;;;;;;4992692;28;19996;-81
2022/03/30 12:48:46;;;;;;;7.97;1.23;;;;;;;;;;4999757;28;20136;-82
2022/03/30 12:51:17;;;;;;;1.77;0.95;;;;;;;;;;5012959;28;20038;-81
2022/03/30 12:53:46;;;;;;;3.00;0.63;;;;;;;;;;4996517;28;20142;-81
2022/03/30 12:56:12;;;;;;;1.55;0.73;;;;;;;;;;4998015;28;20053;-81
2022/03/30 12:58:59;;;;;;;2.92;1.00;;;;;;;;;;4998775;28;20021;-82
2022/03/30 13:01:34;;;;;;;4.50;1.15;;;;;;;;;;4995638;28;20040;-81
2022/03/30 13:04:00;;;;;;;1.98;1.20;;;;;;;;;;4994410;28;20433;-81
2022/03/30 13:06:27;;;;;;;3.47;1.33;;;;;;;;;;4993679;28;20512;-81
2022/03/30 13:09:12;;;;;;;1.83;1.20;;;;;;;;;;5004366;28;20057;-82
2022/03/30 13:11:57;;;;;;;2.37;0.97;;;;;;;;;;4987753;28;20046;-82
2022/03/30 13:14:24;;;;;;;1.48;0.70;;;;;;;;;;4997944;28;20370;-83
2022/03/30 13:16:58;;;;;;;3.60;1.30;;;;;;;;;;5014616;28;20624;-82
2022/03/30 13:19:25;;;;;;;6.03;1.20;;;;;;;;;;4991616;28;20189;-82
2022/03/30 13:21:52;;;;;;;5.32;0.90;;;;;;;;;;5010475;28;20040;-82
2022/03/30 13:24:23;;;;;;;70.05;5.90;;;;;;;;;;5012976;28;20781;-81
2022/03/30 13:26:53;;;;;;;10.15;1.60;;;;;;;;;;4997294;28;20040;-82
2022/03/30 13:29:20;;;;;;;3.38;0.88;;;;;;;;;;4993363;28;20330;-82
2022/03/30 13:31:46;;;;;;;49.80;5.28;;;;;;;;;;4993790;28;20037;-82
2022/03/30 13:34:13;;;;;;;10.93;1.50;;;;;;;;;;5009039;28;20057;-82
2022/03/30 13:36:40;;;;;;;7.68;1.48;;;;;;;;;;5009870;28;20036;-81
2022/03/30 13:39:07;;;;;;;5.57;1.52;;;;;;;;;;4998074;28;20762;-81
2022/03/30 13:41:33;;;;;;;1.80;0.90;;;;;;;;;;5011677;28;20045;-82
2022/03/30 13:44:00;;;;;;;6.78;1.48;;;;;;;;;;4990329;28;20388;-82
2022/03/30 13:46:27;;;;;;;7.70;1.40;;;;;;;;;;4995132;28;20022;-82
2022/03/30 13:48:53;;;;;;;3.45;1.02;;;;;;;;;;5012860;28;20558;-82
2022/03/30 13:51:19;;;;;;;11.82;1.27;;;;;;;;;;5000485;28;20034;-82
2022/03/30 13:53:45;;;;;;;5.93;1.00;;;;;;;;;;4992657;28;20052;-82
2022/03/30 13:56:13;;;;;;;2.88;1.10;;;;;;;;;;5015607;28;20030;-82
2022/03/30 13:58:39;;;;;;;4.72;1.48;;;;;;;;;;4997369;28;20034;-81
2022/03/30 14:01:06;;;;;;;4.85;2.03;;;;;;;;;;4992402;28;20453;-82
2022/03/30 14:03:32;;;;;;;6.18;2.30;;;;;;;;;;5009029;28;20527;-82
2022/03/30 14:05:58;;;;;;;10.13;3.75;;;;;;;;;;5011010;28;20516;-81
2022/03/30 14:08:25;;;;;;;7.07;2.83;;;;;;;;;;5008566;28;20446;-82
2022/03/30 14:10:52;;;;;;;5.47;2.40;;;;;;;;;;4995094;28;20047;-82
2022/03/30 14:13:19;;;;;;;8.05;2.20;;;;;;;;;;4995989;28;20038;-82
2022/03/30 14:15:45;;;;;;;7.18;3.33;;;;;;;;;;4993931;28;20092;-81
2022/03/30 14:18:11;;;;;;;13.50;3.75;;;;;;;;;;5005865;28;20061;-82
2022/03/30 14:20:38;;;;;;;4.38;1.38;;;;;;;;;;4993080;28;20041;-82
2022/03/30 14:23:05;;;;;;;5.25;1.35;;;;;;;;;;5010864;28;20831;-82
2022/03/30 14:25:32;;;;;;;5.65;1.27;;;;;;;;;;5002157;28;20069;-83
2022/03/30 14:27:59;;;;;;;3.13;1.30;;;;;;;;;;5011819;28;20650;-83
2022/03/30 14:30:25;;;;;;;2.95;1.27;;;;;;;;;;5002415;28;20473;-82
2022/03/30 14:32:53;;;;;;;2.95;1.10;;;;;;;;;;5010917;28;20925;-82
2022/03/30 14:35:19;;;;;;;3.78;1.20;;;;;;;;;;4994868;28;20036;-82
2022/03/30 14:37:46;;;;;;;5.05;1.20;;;;;;;;;;4994831;28;20496;-82
2022/03/30 14:40:13;;;;;;;1.58;0.90;;;;;;;;;;5002997;28;20381;-81
2022/03/30 14:42:45;;;;;;;3.72;1.23;;;;;;;;;;5002550;28;20420;-82
2022/03/30 14:45:14;;;;;;;5.63;1.23;;;;;;;;;;5013242;28;20052;-82
2022/03/30 14:47:40;;;;;;;4.88;1.10;;;;;;;;;;4995353;28;20381;-82
2022/03/30 14:50:06;;;;;;;6.75;1.92;;;;;;;;;;4989166;28;20053;-82
2022/03/30 14:52:32;;;;;;;5.20;2.38;;;;;;;;;;4994909;28;20517;-82
2022/03/30 14:54:59;;;;;;;9.27;2.50;;;;;;;;;;4998250;28;20030;-82